Terminal Aerodrome Forecast
Issued by NWS Topeka, KS

Home | Current Version | Previous Version | Text Only | Print | Product List | Glossary Off
Versions: 1 2 3 4 5 6 7 8 9 10 11 12 13 14 15 16 17 18 19

000
FTUS43 KTOP 281100
TAFTOP
TAF
KTOP 281137Z 2812/2912 13007KT P6SM VCTS SCT060CB BKN090
     FM281600 17008KT P6SM FEW060 BKN120
     FM290000 17006KT P6SM VCTS BKN060CB
     FM290600 18006KT P6SM VCTS BKN050CB
      TEMPO 2908/2912 4SM -TSRA OVC040CB=

USA.gov is the U.S. government's official web portal to all federal, state and local government web resources and services.